Time;durP1;ratioP1;P1;durP2;ratioP2;P2;SDS_P1;SDS_P2;PMS_P1;PMS_P2;Temp;Humidity;BMP_temperature;BMP_pressure;BME280_temperature;BME280_humidity;BME280_pressure;Samples;Min_cycle;Max_cycle;Signal;HPM_P1;HPM_P2
2022/03/11 00:01:19;;;;;;;15.70;6.70;;;;;;;-4.81;48.06;102638.64;87665;1284;94239;-62
2022/03/11 00:03:28;;;;;;;14.00;6.40;;;;;;;-4.79;48.13;102641.23;87813;1282;81564;-62
2022/03/11 00:05:37;;;;;;;12.00;6.40;;;;;;;-4.80;48.30;102642.84;87808;1282;83159;-62
2022/03/11 00:07:49;;;;;;;13.10;5.80;;;;;;;-4.82;48.15;102648.33;87842;1282;100294;-61
2022/03/11 00:09:58;;;;;;;13.40;5.40;;;;;;;-4.82;47.98;102645.51;87811;1282;88802;-61
2022/03/11 00:12:09;;;;;;;11.40;5.60;;;;;;;-4.84;48.18;102640.11;87817;1282;94570;-63
2022/03/11 00:14:21;;;;;;;10.70;5.10;;;;;;;-4.85;48.12;102643.13;87788;1282;79560;-63
2022/03/11 00:16:30;;;;;;;12.20;5.60;;;;;;;-4.86;48.04;102645.95;87824;1282;81779;-60
2022/03/11 00:18:39;;;;;;;12.20;5.50;;;;;;;-4.86;48.25;102648.61;87820;1282;99823;-63
2022/03/11 00:20:51;;;;;;;9.90;5.10;;;;;;;-4.88;48.21;102651.29;87814;1282;88178;-62
2022/03/11 00:23:01;;;;;;;11.10;5.30;;;;;;;-4.90;48.68;102650.63;87815;1282;95511;-78
2022/03/11 00:25:11;;;;;;;15.40;5.60;;;;;;;-4.93;48.61;102649.48;87800;1282;79012;-78
2022/03/11 00:27:20;;;;;;;13.90;5.70;;;;;;;-5.01;48.76;102650.19;87863;1282;80088;-78
2022/03/11 00:29:29;;;;;;;14.60;6.40;;;;;;;-5.09;49.14;102654.95;87816;1282;99664;-78
2022/03/11 00:31:38;;;;;;;13.70;6.30;;;;;;;-5.17;49.21;102655.13;87819;1282;88903;-79
2022/03/11 00:33:48;;;;;;;11.70;6.80;;;;;;;-5.17;49.27;102653.36;87798;1282;95302;-80
2022/03/11 00:35:57;;;;;;;15.50;6.30;;;;;;;-5.16;49.41;102652.30;87819;1282;80243;-79
2022/03/11 00:38:05;;;;;;;14.90;6.80;;;;;;;-5.18;49.69;102649.70;87838;1282;82037;-79
2022/03/11 00:40:15;;;;;;;14.80;6.30;;;;;;;-5.19;49.81;102647.81;87808;1282;99824;-78
2022/03/11 00:42:25;;;;;;;14.00;7.10;;;;;;;-5.24;49.94;102650.19;87844;1282;87284;-77
2022/03/11 00:44:35;;;;;;;13.60;6.90;;;;;;;-5.27;50.13;102649.39;87800;1282;95565;-80
2022/03/11 00:46:47;;;;;;;15.50;6.80;;;;;;;-5.29;50.32;102652.41;87787;1282;81695;-79
2022/03/11 00:48:56;;;;;;;14.30;7.00;;;;;;;-5.32;50.40;102646.68;87821;1282;80171;-78
2022/03/11 00:51:08;;;;;;;15.40;6.90;;;;;;;-5.35;50.49;102651.66;87810;1282;100961;-77
2022/03/11 00:53:20;;;;;;;15.20;8.00;;;;;;;-5.38;50.67;102653.32;87821;1282;88194;-78
2022/03/11 00:55:32;;;;;;;16.70;7.70;;;;;;;-5.43;51.01;102650.09;87821;1282;93769;-78
2022/03/11 00:57:42;;;;;;;19.30;9.00;;;;;;;-5.49;51.15;102652.31;87812;1282;78827;-63
2022/03/11 00:59:51;;;;;;;25.00;10.90;;;;;;;-5.54;51.26;102654.71;87800;1282;83084;-62
2022/03/11 01:02:00;;;;;;;21.10;10.80;;;;;;;-5.62;51.54;102661.37;87832;1282;97653;-78
2022/03/11 01:04:11;;;;;;;25.20;11.30;;;;;;;-5.65;51.83;102657.75;87809;1282;89936;-78
2022/03/11 01:06:21;;;;;;;27.80;11.60;;;;;;;-5.71;52.10;102657.50;87752;1282;94478;-78
2022/03/11 01:08:30;;;;;;;27.10;13.10;;;;;;;-5.74;52.38;102654.07;87819;1282;81783;-78
2022/03/11 01:10:40;;;;;;;26.10;12.60;;;;;;;-5.78;52.53;102658.55;87809;1282;81368;-79
2022/03/11 01:12:53;;;;;;;35.00;14.80;;;;;;;-5.82;52.90;102655.64;87768;1282;100021;-78
2022/03/11 01:15:02;;;;;;;35.40;15.40;;;;;;;-5.87;53.04;102655.25;87791;1282;89405;-79
2022/03/11 01:17:12;;;;;;;30.40;14.30;;;;;;;-5.95;53.44;102654.36;87775;1282;95700;-63
2022/03/11 01:19:25;;;;;;;29.90;13.90;;;;;;;-6.06;53.67;102656.48;87766;1282;81101;-62
2022/03/11 01:21:37;;;;;;;28.40;14.00;;;;;;;-6.15;53.73;102653.85;87803;1282;82543;-63
2022/03/11 01:23:46;;;;;;;31.80;14.50;;;;;;;-6.16;53.91;102653.70;87823;1282;98337;-62
2022/03/11 01:25:58;;;;;;;30.60;13.50;;;;;;;-6.15;54.23;102653.31;87787;1281;89246;-62
2022/03/11 01:28:07;;;;;;;35.50;14.40;;;;;;;-6.18;54.26;102654.79;87794;1282;95525;-62
2022/03/11 01:30:17;;;;;;;34.30;16.60;;;;;;;-6.19;54.39;102656.57;87779;1282;78957;-62
2022/03/11 01:32:26;;;;;;;38.80;16.60;;;;;;;-6.18;54.49;102651.46;87769;1282;83658;-78
2022/03/11 01:34:35;;;;;;;36.90;16.40;;;;;;;-6.19;54.74;102657.80;87788;1282;100509;-78
2022/03/11 01:36:48;;;;;;;38.40;17.60;;;;;;;-6.25;54.78;102662.29;87871;1282;89401;-62
2022/03/11 01:38:57;;;;;;;40.50;17.70;;;;;;;-6.30;54.83;102665.88;87811;1282;94631;-62
2022/03/11 01:41:10;;;;;;;39.80;17.70;;;;;;;-6.34;54.97;102670.16;87828;1282;79065;-77
2022/03/11 01:43:20;;;;;;;39.40;18.50;;;;;;;-6.35;54.99;102672.62;87839;1282;82122;-77
2022/03/11 01:45:29;;;;;;;38.60;18.30;;;;;;;-6.40;55.18;102672.55;87811;1282;99550;-77
2022/03/11 01:47:39;;;;;;;45.50;19.50;;;;;;;-6.47;55.27;102671.27;87852;1282;86739;-77
2022/03/11 01:49:52;;;;;;;42.30;19.40;;;;;;;-6.51;55.45;102672.74;87799;1282;96147;-77
2022/03/11 01:52:02;;;;;;;41.20;20.60;;;;;;;-6.62;55.42;102675.71;87836;1282;81136;-61
2022/03/11 01:54:16;;;;;;;40.50;18.70;;;;;;;-6.65;55.82;102676.63;87861;1282;79758;-62
2022/03/11 01:56:26;;;;;;;46.30;20.40;;;;;;;-6.67;55.87;102677.56;87852;1282;99961;-77
2022/03/11 01:58:39;;;;;;;44.00;19.70;;;;;;;-6.79;55.98;102681.77;87833;1282;89076;-76
2022/03/11 02:00:49;;;;;;;48.60;21.70;;;;;;;-6.87;56.23;102682.26;87850;1281;94727;-78
2022/03/11 02:03:02;;;;;;;42.40;19.10;;;;;;;-6.90;56.26;102676.17;87826;1282;80274;-77
2022/03/11 02:05:17;;;;;;;47.00;21.00;;;;;;;-6.89;56.44;102680.70;87810;1282;81255;-77
2022/03/11 02:07:27;;;;;;;47.70;21.90;;;;;;;-6.89;56.62;102682.27;87872;1282;97420;-63
2022/03/11 02:09:37;;;;;;;47.20;20.40;;;;;;;-6.96;56.81;102681.34;87821;1282;88653;-61
2022/03/11 02:11:48;;;;;;;48.80;22.80;;;;;;;-6.96;56.95;102680.64;87802;1282;92981;-62
2022/03/11 02:13:59;;;;;;;42.60;22.40;;;;;;;-6.98;56.89;102681.89;87802;1282;79921;-63
2022/03/11 02:16:13;;;;;;;48.00;22.20;;;;;;;-7.11;57.03;102682.79;87864;1282;80193;-79
2022/03/11 02:18:26;;;;;;;44.90;21.80;;;;;;;-7.24;57.42;102680.86;87805;1282;100063;-76
2022/03/11 02:20:38;;;;;;;46.00;23.30;;;;;;;-7.29;57.47;102684.42;87809;1282;87235;-76
2022/03/11 02:22:53;;;;;;;48.70;23.00;;;;;;;-7.30;57.52;102680.93;87775;1281;95519;-61
2022/03/11 02:25:09;;;;;;;48.60;23.60;;;;;;;-7.33;57.69;102681.52;87819;1282;80450;-61
2022/03/11 02:27:18;;;;;;;53.00;25.30;;;;;;;-7.35;57.97;102681.02;87812;1282;81585;-76
2022/03/11 02:29:30;;;;;;;60.80;27.90;;;;;;;-7.34;58.16;102685.19;87821;1282;97679;-75
2022/03/11 02:31:39;;;;;;;50.90;25.00;;;;;;;-7.28;58.24;102685.29;87781;1282;88970;-64
2022/03/11 02:33:49;;;;;;;56.20;26.80;;;;;;;-7.23;58.44;102684.17;87797;1281;95179;-61
2022/03/11 02:36:02;;;;;;;56.60;28.00;;;;;;;-7.22;58.46;102686.27;87828;1282;79878;-62
2022/03/11 02:38:14;;;;;;;54.90;27.90;;;;;;;-7.29;58.39;102686.71;87806;1282;84690;-62
2022/03/11 02:40:27;;;;;;;57.70;27.10;;;;;;;-7.41;58.61;102688.80;87809;1282;100192;-61
2022/03/11 02:42:37;;;;;;;53.90;27.80;;;;;;;-7.50;58.69;102686.98;87835;1282;86496;-61
2022/03/11 02:44:49;;;;;;;55.90;27.10;;;;;;;-7.51;58.81;102687.00;87818;1282;95148;-63
2022/03/11 02:47:02;;;;;;;50.90;26.00;;;;;;;-7.51;58.80;102688.40;87845;1282;81806;-75
2022/03/11 02:49:13;;;;;;;58.00;28.10;;;;;;;-7.53;58.86;102685.61;87866;1282;79934;-77
2022/03/11 02:51:22;;;;;;;49.60;26.40;;;;;;;-7.60;59.21;102683.61;87821;1281;98538;-63
2022/03/11 02:53:32;;;;;;;56.20;27.90;;;;;;;-7.61;59.32;102681.52;87814;1282;88512;-61
2022/03/11 02:55:44;;;;;;;61.40;27.20;;;;;;;-7.64;59.54;102680.35;87810;1282;92306;-64
2022/03/11 02:57:57;;;;;;;59.80;28.30;;;;;;;-7.67;59.77;102683.88;87817;1282;81938;-63
2022/03/11 03:00:07;;;;;;;59.90;26.90;;;;;;;-7.64;59.69;102679.45;87802;1282;80890;-63
2022/03/11 03:02:19;;;;;;;51.60;27.30;;;;;;;-7.62;59.65;102686.43;87822;1282;97915;-62
2022/03/11 03:04:28;;;;;;;55.20;24.40;;;;;;;-7.55;59.80;102686.00;87839;1282;89518;-64
2022/03/11 03:06:37;;;;;;;47.60;24.70;;;;;;;-7.46;59.80;102683.27;87789;1282;94421;-75
2022/03/11 03:08:47;;;;;;;49.80;22.50;;;;;;;-7.41;59.86;102688.45;87822;1282;80355;-75
2022/03/11 03:10:59;;;;;;;51.90;23.00;;;;;;;-7.40;59.92;102689.13;87842;1282;81715;-75
2022/03/11 03:13:08;;;;;;;47.30;21.50;;;;;;;-7.42;59.96;102688.64;87824;1282;97333;-75
2022/03/11 03:15:20;;;;;;;54.70;23.10;;;;;;;-7.48;59.93;102683.63;87834;1282;87614;-76
2022/03/11 03:17:29;;;;;;;45.60;22.80;;;;;;;-7.55;60.06;102679.34;87805;1282;93711;-76
2022/03/11 03:19:41;;;;;;;51.00;22.70;;;;;;;-7.57;60.22;102677.61;87788;1282;80032;-76
2022/03/11 03:21:50;;;;;;;55.50;23.40;;;;;;;-7.63;60.21;102674.38;87831;1282;79856;-63
2022/03/11 03:24:01;;;;;;;46.60;21.80;;;;;;;-7.68;60.16;102672.69;87682;1284;97076;-63
2022/03/11 03:26:11;;;;;;;43.10;20.30;;;;;;;-7.74;60.59;102672.59;87819;1282;89485;-61
2022/03/11 03:28:23;;;;;;;48.70;21.00;;;;;;;-7.76;60.77;102673.14;87819;1282;95676;-62
2022/03/11 03:30:32;;;;;;;52.00;22.80;;;;;;;-7.74;60.61;102680.45;87825;1282;79725;-64
2022/03/11 03:32:43;;;;;;;49.80;21.30;;;;;;;-7.71;60.70;102678.14;87852;1282;82381;-76
2022/03/11 03:34:51;;;;;;;40.40;19.80;;;;;;;-7.71;60.76;102680.77;87858;1282;98824;-77
2022/03/11 03:37:03;;;;;;;46.10;20.60;;;;;;;-7.70;60.86;102680.41;85546;1282;3077660;-75
2022/03/11 03:39:15;;;;;;;45.50;19.70;;;;;;;-7.66;60.99;102683.69;87643;1283;94982;-78
2022/03/11 03:41:27;;;;;;;45.50;20.10;;;;;;;-7.67;60.97;102681.61;87840;1282;81935;-64
2022/03/11 03:43:39;;;;;;;47.20;20.90;;;;;;;-7.74;60.99;102682.55;87844;1282;81169;-63
2022/03/11 03:45:48;;;;;;;48.40;21.10;;;;;;;-7.83;61.14;102681.25;87679;1283;99320;-62
2022/03/11 03:47:57;;;;;;;43.00;19.00;;;;;;;-7.83;61.25;102681.95;87733;1284;87300;-62
2022/03/11 03:50:07;;;;;;;50.40;19.50;;;;;;;-7.86;61.13;102683.91;87678;1284;93108;-62
2022/03/11 03:52:16;;;;;;;47.40;20.90;;;;;;;-7.88;61.21;102682.20;87677;1284;80652;-76
2022/03/11 03:54:25;;;;;;;48.70;20.50;;;;;;;-7.93;61.21;102683.46;87716;1284;83095;-76
2022/03/11 03:56:36;;;;;;;50.50;21.00;;;;;;;-7.91;61.32;102686.42;87674;1284;99840;-74
2022/03/11 03:58:45;;;;;;;49.10;21.90;;;;;;;-7.93;61.51;102682.77;87683;1284;89138;-75
2022/03/11 04:00:58;;;;;;;49.60;21.10;;;;;;;-7.96;61.36;102677.56;87690;1284;95955;-75
2022/03/11 04:03:11;;;;;;;43.10;20.60;;;;;;;-8.00;61.49;102679.70;87682;1284;80956;-62
2022/03/11 04:05:21;;;;;;;45.90;20.80;;;;;;;-8.02;61.57;102677.09;87718;1284;82859;-63
2022/03/11 04:07:30;;;;;;;46.00;19.40;;;;;;;-7.99;61.63;102674.98;87688;1284;98007;-64
2022/03/11 04:09:39;;;;;;;48.60;19.30;;;;;;;-7.97;61.77;102676.35;87695;1284;88722;-62
2022/03/11 04:11:51;;;;;;;42.00;19.20;;;;;;;-7.94;61.75;102675.44;87668;1284;95171;-63
2022/03/11 04:14:01;;;;;;;40.40;17.80;;;;;;;-7.94;61.74;102675.60;87699;1284;82280;-61
2022/03/11 04:16:10;;;;;;;41.60;18.00;;;;;;;-7.90;61.80;102678.19;87705;1283;80619;-74
2022/03/11 04:18:19;;;;;;;40.90;19.20;;;;;;;-7.89;61.91;102683.08;87687;1284;99284;-75
2022/03/11 04:20:28;;;;;;;38.10;18.40;;;;;;;-7.90;61.90;102682.20;87615;1284;89025;-76
2022/03/11 04:22:42;;;;;;;41.70;19.10;;;;;;;-7.88;62.01;102682.18;87692;1284;95859;-74
2022/03/11 04:24:54;;;;;;;37.60;17.20;;;;;;;-7.87;61.99;102683.05;87666;1283;82518;-75
2022/03/11 04:27:04;;;;;;;39.90;17.30;;;;;;;-7.87;61.93;102682.71;87718;1284;80601;-76
2022/03/11 04:29:16;;;;;;;36.20;17.40;;;;;;;-7.83;61.84;102683.17;87711;1283;98164;-76
2022/03/11 04:31:25;;;;;;;37.10;16.80;;;;;;;-7.79;61.81;102682.79;87672;1284;88029;-76
2022/03/11 04:33:34;;;;;;;38.80;17.70;;;;;;;-7.76;61.95;102686.95;87695;1284;96320;-73
2022/03/11 04:35:46;;;;;;;33.90;16.20;;;;;;;-7.72;61.76;102682.20;87670;1284;79010;-76
2022/03/11 04:37:55;;;;;;;34.60;15.90;;;;;;;-7.70;61.76;102675.52;87675;1283;82260;-75
2022/03/11 04:40:10;;;;;;;35.90;15.90;;;;;;;-7.66;61.90;102680.38;87693;1284;99379;-74
2022/03/11 04:42:19;;;;;;;38.20;16.50;;;;;;;-7.63;61.97;102678.75;87721;1284;87432;-63
2022/03/11 04:44:28;;;;;;;35.00;16.20;;;;;;;-7.63;61.81;102676.30;87710;1282;94218;-64
2022/03/11 04:46:37;;;;;;;41.00;17.70;;;;;;;-7.64;61.76;102677.71;87847;1282;82161;-62
2022/03/11 04:48:47;;;;;;;37.10;16.20;;;;;;;-7.63;61.73;102679.11;87842;1282;82462;-63
2022/03/11 04:50:56;;;;;;;41.10;16.40;;;;;;;-7.64;61.71;102676.84;87862;1282;99609;-62
2022/03/11 04:53:05;;;;;;;35.60;15.60;;;;;;;-7.62;61.78;102674.72;87863;1282;87291;-63
2022/03/11 04:55:16;;;;;;;45.40;21.40;;;;;;;-7.59;61.85;102674.50;87823;1282;95972;-62
2022/03/11 04:57:27;;;;;;;59.10;29.60;;;;;;;-7.56;61.75;102675.69;87861;1282;80815;-62
2022/03/11 04:59:36;;;;;;;49.00;23.70;;;;;;;-7.54;61.71;102677.77;87852;1282;82843;-62
2022/03/11 05:01:48;;;;;;;42.00;19.50;;;;;;;-7.49;61.72;102674.73;87831;1282;99511;-62
2022/03/11 05:03:59;;;;;;;36.30;16.20;;;;;;;-7.45;61.73;102672.21;87830;1282;86877;-61
2022/03/11 05:06:09;;;;;;;36.40;15.40;;;;;;;-7.41;61.61;102675.85;87851;1282;92847;-77
2022/03/11 05:08:23;;;;;;;35.80;15.20;;;;;;;-7.41;61.65;102673.56;87850;1282;82217;-75
2022/03/11 05:10:33;;;;;;;35.40;15.50;;;;;;;-7.43;61.56;102673.60;87698;1284;82853;-76
2022/03/11 05:12:43;;;;;;;38.60;15.70;;;;;;;-7.50;61.79;102673.69;87587;1284;99525;-76
2022/03/11 05:14:56;;;;;;;37.70;17.30;;;;;;;-7.56;61.75;102672.73;87663;1284;89331;-77
2022/03/11 05:17:06;;;;;;;43.50;18.30;;;;;;;-7.54;61.75;102673.21;87654;1284;94558;-63
2022/03/11 05:19:15;;;;;;;47.70;20.50;;;;;;;-7.54;61.84;102676.19;87668;1284;79862;-62
2022/03/11 05:21:26;;;;;;;54.10;21.50;;;;;;;-7.54;61.76;102672.16;87669;1284;80601;-76
2022/03/11 05:23:38;;;;;;;51.60;22.00;;;;;;;-7.48;61.88;102672.78;87582;1284;100166;-76
2022/03/11 05:25:51;;;;;;;48.30;21.80;;;;;;;-7.47;61.79;102676.45;87429;1285;87502;-76
2022/03/11 05:28:00;;;;;;;48.90;21.90;;;;;;;-7.46;61.88;102675.03;87585;1284;94654;-62
2022/03/11 05:30:12;;;;;;;49.60;21.10;;;;;;;-7.40;61.82;102672.33;87678;1284;79116;-64
2022/03/11 05:32:21;;;;;;;51.20;20.00;;;;;;;-7.35;61.83;102676.10;87703;1284;82766;-65
2022/03/11 05:34:30;;;;;;;61.40;21.80;;;;;;;-7.31;61.78;102673.08;87652;1284;100338;-64
2022/03/11 05:36:40;;;;;;;51.50;19.80;;;;;;;-7.19;61.75;102674.67;87620;1284;88729;-77
2022/03/11 05:38:48;;;;;;;51.70;20.20;;;;;;;-7.07;61.60;102679.22;87695;1284;94152;-76
2022/03/11 05:40:57;;;;;;;42.90;16.60;;;;;;;-6.97;61.61;102682.05;87627;1284;82573;-76
2022/03/11 05:43:07;;;;;;;40.40;16.30;;;;;;;-6.83;61.40;102682.18;87690;1284;80703;-76
2022/03/11 05:45:17;;;;;;;47.00;18.10;;;;;;;-6.68;61.41;102689.48;87685;1284;98066;-75
2022/03/11 05:47:27;;;;;;;62.30;21.60;;;;;;;-6.46;61.28;102696.30;87702;1284;88254;-76
2022/03/11 05:49:38;;;;;;;59.70;21.70;;;;;;;-5.41;61.81;102693.21;87665;1284;94178;-74
2022/03/11 05:51:49;;;;;;;74.10;24.80;;;;;;;-3.81;61.67;102687.16;87675;1284;77832;-63
2022/03/11 05:54:02;;;;;;;82.50;26.50;;;;;;;-1.99;60.30;102690.08;87591;1284;81525;-63
2022/03/11 05:56:16;;;;;;;51.20;20.90;;;;;;;-0.64;58.54;102683.71;87664;1284;100114;-77
2022/03/11 05:58:29;;;;;;;49.90;18.90;;;;;;;0.31;56.64;102681.05;87672;1284;89088;-78
2022/03/11 06:00:39;;;;;;;47.20;18.30;;;;;;;1.56;55.63;102675.98;87660;1283;93080;-76
2022/03/11 06:02:49;;;;;;;61.90;24.90;;;;;;;2.34;53.21;102680.71;87674;1284;79064;-77
2022/03/11 06:04:58;;;;;;;53.00;22.90;;;;;;;3.36;52.09;102673.41;87715;1284;81845;-75
2022/03/11 06:07:11;;;;;;;40.50;18.90;;;;;;;4.43;51.35;102670.36;87637;1284;98795;-62
2022/03/11 06:09:21;;;;;;;37.80;18.00;;;;;;;5.61;50.33;102670.06;87602;1284;87431;-61
2022/03/11 06:11:30;;;;;;;41.80;17.60;;;;;;;6.42;49.22;102671.66;87666;1284;94359;-78
2022/03/11 06:13:40;;;;;;;52.60;22.60;;;;;;;6.89;47.84;102662.18;87755;1284;79510;-77
2022/03/11 06:15:49;;;;;;;28.00;15.10;;;;;;;7.50;46.29;102666.45;87692;1284;83447;-75
2022/03/11 06:17:59;;;;;;;37.30;19.30;;;;;;;7.87;44.80;102668.98;87689;1284;100063;-79
2022/03/11 06:20:11;;;;;;;28.40;14.50;;;;;;;8.01;43.38;102670.83;87581;1283;89158;-76
2022/03/11 06:22:20;;;;;;;28.90;15.40;;;;;;;7.97;42.38;102667.91;87687;1284;95683;-61
2022/03/11 06:24:34;;;;;;;31.80;16.30;;;;;;;7.68;41.42;102672.83;87669;1284;78426;-63
2022/03/11 06:26:44;;;;;;;34.60;16.40;;;;;;;7.16;40.63;102671.98;87420;1285;79887;-62
2022/03/11 06:28:53;;;;;;;27.60;15.00;;;;;;;6.62;40.71;102681.04;87680;1284;99503;-61
2022/03/11 06:31:03;;;;;;;37.70;20.40;;;;;;;7.02;40.63;102677.71;87659;1284;87780;-74
2022/03/11 06:33:12;;;;;;;26.80;14.70;;;;;;;7.60;39.69;102676.05;87683;1284;95819;-78
2022/03/11 06:35:22;;;;;;;22.50;13.10;;;;;;;7.04;38.96;102678.84;87712;1284;79902;-76
2022/03/11 06:37:33;;;;;;;32.20;18.00;;;;;;;7.20;38.84;102676.59;87741;1284;82597;-76
2022/03/11 06:39:44;;;;;;;22.50;12.60;;;;;;;6.97;38.48;102675.59;87718;1284;99113;-77
2022/03/11 06:41:56;;;;;;;19.70;11.70;;;;;;;6.45;37.72;102682.70;87742;1284;86164;-78
2022/03/11 06:44:06;;;;;;;15.80;9.90;;;;;;;6.32;37.72;102686.44;87711;1284;93236;-76
2022/03/11 06:46:17;;;;;;;21.80;11.70;;;;;;;6.31;36.94;102686.94;87601;1284;77665;-74
2022/03/11 06:48:27;;;;;;;19.10;11.20;;;;;;;6.53;37.23;102689.88;87698;1284;80386;-76
2022/03/11 06:50:36;;;;;;;18.50;11.50;;;;;;;6.86;37.31;102684.63;87699;1284;99103;-60
2022/03/11 06:52:47;;;;;;;16.60;9.90;;;;;;;6.85;36.55;102683.23;87678;1284;89283;-61
2022/03/11 06:54:56;;;;;;;26.60;15.10;;;;;;;7.01;36.44;102676.86;87680;1283;94908;-61
2022/03/11 06:57:07;;;;;;;20.40;12.60;;;;;;;7.92;37.04;102675.05;87655;1284;78070;-59
2022/03/11 06:59:19;;;;;;;26.70;14.10;;;;;;;8.90;36.38;102671.31;87669;1284;80911;-59
2022/03/11 07:01:30;;;;;;;14.40;9.80;;;;;;;9.58;34.38;102672.35;87694;1284;99796;-59
2022/03/11 07:03:40;;;;;;;23.50;12.90;;;;;;;9.15;34.38;102668.73;87682;1284;86985;-60
2022/03/11 07:05:50;;;;;;;26.10;14.90;;;;;;;8.80;34.44;102668.48;87665;1284;95696;-61
2022/03/11 07:07:59;;;;;;;26.00;13.40;;;;;;;8.69;34.04;102669.21;87677;1284;78805;-75
2022/03/11 07:10:13;;;;;;;16.00;10.80;;;;;;;8.97;33.43;102669.81;87702;1284;82888;-77
2022/03/11 07:12:21;;;;;;;16.10;10.00;;;;;;;7.99;33.09;102678.08;87703;1283;99853;-77
2022/03/11 07:14:35;;;;;;;15.60;10.90;;;;;;;7.55;33.69;102678.75;87592;1284;88472;-75
2022/03/11 07:16:44;;;;;;;22.00;12.30;;;;;;;8.08;33.58;102679.80;87712;1284;94464;-71
2022/03/11 07:18:53;;;;;;;16.90;10.20;;;;;;;8.42;33.64;102675.99;87686;1283;81784;-75
2022/03/11 07:21:03;;;;;;;16.90;10.00;;;;;;;8.87;33.58;102678.58;87673;1284;80353;-63
2022/03/11 07:23:13;;;;;;;11.70;8.60;;;;;;;9.56;33.32;102679.55;87678;1284;99363;-59
2022/03/11 07:25:23;;;;;;;20.20;11.20;;;;;;;10.30;32.36;102680.05;87707;1284;87855;-60
2022/03/11 07:27:32;;;;;;;16.40;10.60;;;;;;;10.66;31.55;102680.34;87686;1284;93515;-80
2022/03/11 07:29:44;;;;;;;16.30;10.20;;;;;;;11.14;31.78;102674.74;87677;1284;79246;-79
2022/03/11 07:31:57;;;;;;;18.70;9.30;;;;;;;11.47;31.50;102674.63;87719;1284;80326;-77
2022/03/11 07:36:27;;;;;;;14.00;9.40;;;;;;;12.04;30.90;102677.10;88286;1274;86025;-79
2022/03/11 07:38:36;;;;;;;10.60;6.60;;;;;;;12.23;30.21;102681.56;87723;1284;93908;-78
2022/03/11 07:40:46;;;;;;;16.60;9.80;;;;;;;12.51;29.25;102683.09;87728;1283;79109;-60
2022/03/11 07:42:54;;;;;;;23.70;11.60;;;;;;;13.34;29.20;102681.72;87724;1284;82135;-59
2022/03/11 07:45:04;;;;;;;15.90;6.80;;;;;;;14.07;27.43;102679.47;87718;1284;100728;-59
2022/03/11 07:47:13;;;;;;;21.20;11.50;;;;;;;14.39;27.29;102677.35;87589;1284;88918;-59
2022/03/11 07:49:23;;;;;;;9.20;6.60;;;;;;;15.10;27.71;102675.88;87567;1284;95893;-61
2022/03/11 07:51:33;;;;;;;10.00;6.20;;;;;;;15.41;26.48;102678.44;87608;1284;79407;-77
2022/03/11 07:53:42;;;;;;;25.80;13.20;;;;;;;15.74;26.00;102680.89;87616;1284;83459;-78
2022/03/11 07:55:54;;;;;;;8.80;5.80;;;;;;;15.96;24.72;102681.73;87596;1284;99555;-61
2022/03/11 07:58:06;;;;;;;8.20;5.30;;;;;;;16.40;24.76;102674.17;87621;1284;88102;-59
2022/03/11 08:00:22;;;;;;;11.40;7.10;;;;;;;16.51;23.96;102680.06;87594;1284;96291;-64
2022/03/11 08:02:34;;;;;;;12.20;6.80;;;;;;;16.28;24.07;102671.92;87588;1284;77893;-60
2022/03/11 08:04:44;;;;;;;7.40;4.90;;;;;;;15.89;24.06;102671.67;87592;1284;82733;-59
2022/03/11 08:06:59;;;;;;;8.60;4.90;;;;;;;16.52;24.02;102670.86;87610;1284;99975;-79
2022/03/11 08:09:09;;;;;;;9.70;5.70;;;;;;;16.65;22.31;102668.62;87646;1284;88845;-79
2022/03/11 08:11:18;;;;;;;13.50;7.60;;;;;;;16.63;22.27;102665.85;87599;1284;95981;-61
2022/03/11 08:13:31;;;;;;;11.60;7.30;;;;;;;16.84;22.45;102671.72;87619;1284;77230;-60
2022/03/11 08:15:43;;;;;;;8.60;5.90;;;;;;;16.80;22.70;102660.41;87633;1283;83534;-77
2022/03/11 08:17:53;;;;;;;9.10;5.60;;;;;;;16.99;22.55;102659.25;87613;1284;99346;-78
2022/03/11 08:20:07;;;;;;;6.40;4.50;;;;;;;16.00;20.31;102665.02;87629;1284;88134;-77
2022/03/11 08:22:16;;;;;;;7.50;4.10;;;;;;;15.60;21.34;102668.05;87589;1284;93870;-76
2022/03/11 08:24:26;;;;;;;13.50;7.70;;;;;;;16.41;21.70;102663.58;87575;1283;78917;-77
2022/03/11 08:26:36;;;;;;;10.60;6.70;;;;;;;17.05;21.22;102663.30;87646;1284;80981;-78
2022/03/11 08:28:45;;;;;;;11.60;6.20;;;;;;;17.06;20.59;102663.33;87328;1287;100376;-77
2022/03/11 08:30:55;;;;;;;7.40;4.70;;;;;;;17.08;20.91;102662.42;87589;1284;87751;-61
2022/03/11 08:33:04;;;;;;;5.90;4.20;;;;;;;17.11;21.03;102666.02;87623;1284;94028;-61
2022/03/11 08:35:14;;;;;;;10.00;6.90;;;;;;;17.19;21.18;102662.60;87575;1284;76904;-70
2022/03/11 08:37:27;;;;;;;5.80;4.00;;;;;;;17.20;20.08;102669.04;87504;1285;80436;-78
2022/03/11 08:39:36;;;;;;;8.80;5.40;;;;;;;17.23;20.65;102665.71;87474;1285;99349;-77
2022/03/11 08:41:45;;;;;;;5.20;4.10;;;;;;;17.60;20.15;102663.77;87434;1285;89438;-76
2022/03/11 08:43:55;;;;;;;12.00;6.50;;;;;;;17.21;19.55;102666.50;87451;1285;95524;-78
2022/03/11 08:46:07;;;;;;;11.90;7.50;;;;;;;16.74;18.84;102669.56;87484;1285;76632;-78
2022/03/11 08:48:16;;;;;;;8.80;5.80;;;;;;;16.43;18.69;102668.33;87452;1285;81497;-77
2022/03/11 08:50:29;;;;;;;10.60;4.90;;;;;;;16.10;19.08;102673.77;87455;1285;99957;-61
2022/03/11 08:52:40;;;;;;;11.70;4.70;;;;;;;16.12;19.39;102670.63;87453;1285;88431;-60
2022/03/11 08:54:53;;;;;;;8.60;5.60;;;;;;;16.33;19.24;102664.25;87440;1285;93048;-58
2022/03/11 08:57:06;;;;;;;18.60;9.60;;;;;;;16.38;19.88;102661.73;87442;1285;78121;-77
2022/03/11 08:59:18;;;;;;;15.20;8.30;;;;;;;16.49;19.52;102662.23;87480;1285;83237;-79
2022/03/11 09:01:30;;;;;;;7.80;5.80;;;;;;;16.75;19.70;102659.98;87423;1284;97364;-77
2022/03/11 09:03:42;;;;;;;8.40;5.80;;;;;;;16.00;18.36;102662.06;87452;1285;88190;-77
2022/03/11 09:05:54;;;;;;;8.40;6.20;;;;;;;15.58;19.73;102662.05;87458;1284;95931;-61
2022/03/11 09:08:08;;;;;;;25.60;13.70;;;;;;;15.36;19.19;102659.20;87428;1285;78647;-60
2022/03/11 09:10:20;;;;;;;10.90;6.70;;;;;;;14.78;18.88;102665.09;87451;1285;82285;-77
2022/03/11 09:12:32;;;;;;;14.60;8.30;;;;;;;14.92;18.87;102660.38;87455;1285;98808;-79
2022/03/11 09:14:44;;;;;;;13.80;8.30;;;;;;;14.26;18.42;102665.38;87462;1284;89666;-77
2022/03/11 09:16:54;;;;;;;11.80;6.90;;;;;;;14.57;19.08;102658.61;87441;1285;95651;-77
2022/03/11 09:19:03;;;;;;;13.90;8.10;;;;;;;15.00;19.42;102656.44;87453;1284;78811;-78
2022/03/11 09:21:16;;;;;;;7.50;5.50;;;;;;;14.80;18.58;102655.23;87442;1285;83280;-80
2022/03/11 09:23:25;;;;;;;5.80;4.80;;;;;;;14.68;18.90;102657.98;87420;1285;99294;-78
2022/03/11 09:25:34;;;;;;;10.20;5.70;;;;;;;14.67;18.78;102662.63;87462;1285;89444;-76
2022/03/11 09:27:46;;;;;;;16.70;9.20;;;;;;;14.78;18.51;102658.20;87489;1285;95723;-79
2022/03/11 09:29:55;;;;;;;10.10;6.20;;;;;;;14.64;18.33;102660.44;87442;1285;80385;-78
2022/03/11 09:32:06;;;;;;;34.80;18.50;;;;;;;14.37;18.41;102657.83;87500;1284;81217;-78
2022/03/11 09:34:15;;;;;;;20.20;10.50;;;;;;;14.32;18.14;102656.53;87461;1285;98807;-79
2022/03/11 09:36:25;;;;;;;7.70;5.60;;;;;;;14.54;19.12;102656.22;87500;1284;89627;-61
2022/03/11 09:38:36;;;;;;;9.40;5.60;;;;;;;14.55;19.04;102647.76;87571;1284;95566;-62
2022/03/11 09:40:47;;;;;;;22.20;12.10;;;;;;;14.72;19.54;102646.73;87617;1284;78209;-62
2022/03/11 09:42:56;;;;;;;16.60;8.60;;;;;;;14.79;19.45;102646.53;87583;1284;81017;-60
2022/03/11 09:45:07;;;;;;;15.70;8.50;;;;;;;14.88;18.26;102644.86;87589;1284;98616;-61
2022/03/11 09:47:17;;;;;;;9.80;6.00;;;;;;;14.60;18.14;102643.13;87354;1287;89432;-82
2022/03/11 09:49:33;;;;;;;9.70;6.60;;;;;;;14.49;17.52;102640.61;87565;1284;94465;-78
2022/03/11 09:51:47;;;;;;;10.40;6.30;;;;;;;14.09;17.66;102644.06;87587;1284;80342;-60
2022/03/11 09:53:56;;;;;;;12.10;7.40;;;;;;;13.92;18.39;102641.30;87576;1284;81843;-60
2022/03/11 09:56:06;;;;;;;12.90;6.80;;;;;;;13.34;17.85;102640.67;87606;1284;99753;-74
2022/03/11 09:58:18;;;;;;;11.60;6.90;;;;;;;12.72;18.55;102640.86;87350;1287;88819;-75
2022/03/11 10:00:27;;;;;;;12.80;6.60;;;;;;;12.16;18.49;102639.56;87555;1284;94252;-61